sensor_id;sensor_type;location;lat;lon;timestamp;P1;durP1;ratioP1;P2;durP2;ratioP2
55728;SDS011;41633;39.720;2.910;2023-04-09T00:01:05;8.38;;;2.63;;
55728;SDS011;41633;39.720;2.910;2023-04-09T00:03:33;6.88;;;2.30;;
55728;SDS011;41633;39.720;2.910;2023-04-09T00:06:01;9.98;;;2.30;;
55728;SDS011;41633;39.720;2.910;2023-04-09T00:08:28;5.65;;;1.45;;
55728;SDS011;41633;39.720;2.910;2023-04-09T00:10:56;4.95;;;1.50;;
55728;SDS011;41633;39.720;2.910;2023-04-09T00:13:22;6.82;;;1.80;;
55728;SDS011;41633;39.720;2.910;2023-04-09T00:15:50;5.93;;;1.75;;
55728;SDS011;41633;39.720;2.910;2023-04-09T00:18:17;7.05;;;1.73;;
55728;SDS011;41633;39.720;2.910;2023-04-09T00:20:45;6.22;;;1.60;;
55728;SDS011;41633;39.720;2.910;2023-04-09T00:23:12;6.90;;;1.63;;
55728;SDS011;41633;39.720;2.910;2023-04-09T00:25:39;7.22;;;1.75;;
55728;SDS011;41633;39.720;2.910;2023-04-09T00:30:41;7.57;;;2.30;;
55728;SDS011;41633;39.720;2.910;2023-04-09T00:33:08;7.22;;;2.17;;
55728;SDS011;41633;39.720;2.910;2023-04-09T00:35:34;7.45;;;1.90;;
55728;SDS011;41633;39.720;2.910;2023-04-09T00:38:00;7.97;;;2.10;;
55728;SDS011;41633;39.720;2.910;2023-04-09T00:40:26;6.43;;;1.90;;
55728;SDS011;41633;39.720;2.910;2023-04-09T00:45:18;6.72;;;1.80;;
55728;SDS011;41633;39.720;2.910;2023-04-09T00:47:45;6.28;;;2.00;;
55728;SDS011;41633;39.720;2.910;2023-04-09T00:50:11;6.63;;;1.95;;
55728;SDS011;41633;39.720;2.910;2023-04-09T00:52:37;5.60;;;1.77;;
55728;SDS011;41633;39.720;2.910;2023-04-09T00:57:30;5.43;;;1.60;;
55728;SDS011;41633;39.720;2.910;2023-04-09T01:02:22;5.22;;;1.50;;
55728;SDS011;41633;39.720;2.910;2023-04-09T01:04:48;3.38;;;1.13;;
55728;SDS011;41633;39.720;2.910;2023-04-09T01:07:19;4.40;;;1.17;;
55728;SDS011;41633;39.720;2.910;2023-04-09T01:09:49;4.32;;;1.20;;
55728;SDS011;41633;39.720;2.910;2023-04-09T01:14:53;6.90;;;1.70;;
55728;SDS011;41633;39.720;2.910;2023-04-09T01:20:08;5.20;;;1.60;;
55728;SDS011;41633;39.720;2.910;2023-04-09T01:25:16;6.00;;;1.40;;
55728;SDS011;41633;39.720;2.910;2023-04-09T01:30:29;5.55;;;1.38;;
55728;SDS011;41633;39.720;2.910;2023-04-09T01:32:56;5.70;;;1.70;;
55728;SDS011;41633;39.720;2.910;2023-04-09T01:35:22;5.72;;;1.45;;
55728;SDS011;41633;39.720;2.910;2023-04-09T01:37:50;6.30;;;1.40;;
55728;SDS011;41633;39.720;2.910;2023-04-09T01:40:17;5.70;;;1.48;;
55728;SDS011;41633;39.720;2.910;2023-04-09T01:42:43;6.95;;;2.00;;
55728;SDS011;41633;39.720;2.910;2023-04-09T01:45:10;7.97;;;2.53;;
55728;SDS011;41633;39.720;2.910;2023-04-09T01:47:37;9.52;;;2.92;;
55728;SDS011;41633;39.720;2.910;2023-04-09T01:50:04;7.40;;;2.10;;
55728;SDS011;41633;39.720;2.910;2023-04-09T01:52:30;7.95;;;1.90;;
55728;SDS011;41633;39.720;2.910;2023-04-09T01:54:57;5.75;;;1.67;;
55728;SDS011;41633;39.720;2.910;2023-04-09T01:57:23;5.90;;;1.30;;
55728;SDS011;41633;39.720;2.910;2023-04-09T01:59:49;4.07;;;1.08;;
55728;SDS011;41633;39.720;2.910;2023-04-09T02:02:16;4.85;;;1.20;;
55728;SDS011;41633;39.720;2.910;2023-04-09T02:04:45;6.18;;;1.27;;
55728;SDS011;41633;39.720;2.910;2023-04-09T02:07:36;4.45;;;1.10;;
55728;SDS011;41633;39.720;2.910;2023-04-09T02:09:58;5.95;;;1.30;;
55728;SDS011;41633;39.720;2.910;2023-04-09T02:12:25;6.80;;;1.50;;
55728;SDS011;41633;39.720;2.910;2023-04-09T02:14:52;5.95;;;1.50;;
55728;SDS011;41633;39.720;2.910;2023-04-09T02:17:18;5.53;;;1.23;;
55728;SDS011;41633;39.720;2.910;2023-04-09T02:19:45;5.38;;;1.48;;
55728;SDS011;41633;39.720;2.910;2023-04-09T02:22:12;4.53;;;1.38;;
55728;SDS011;41633;39.720;2.910;2023-04-09T02:24:38;7.45;;;1.60;;
55728;SDS011;41633;39.720;2.910;2023-04-09T02:27:05;6.45;;;1.45;;
55728;SDS011;41633;39.720;2.910;2023-04-09T02:29:32;6.47;;;1.30;;
55728;SDS011;41633;39.720;2.910;2023-04-09T02:31:58;5.25;;;1.35;;
55728;SDS011;41633;39.720;2.910;2023-04-09T02:34:24;6.28;;;1.25;;
55728;SDS011;41633;39.720;2.910;2023-04-09T02:36:51;5.18;;;1.08;;
55728;SDS011;41633;39.720;2.910;2023-04-09T02:41:43;8.35;;;1.75;;
55728;SDS011;41633;39.720;2.910;2023-04-09T02:46:35;6.40;;;1.80;;
55728;SDS011;41633;39.720;2.910;2023-04-09T02:49:01;7.50;;;1.60;;
55728;SDS011;41633;39.720;2.910;2023-04-09T02:51:27;6.90;;;1.55;;
55728;SDS011;41633;39.720;2.910;2023-04-09T02:53:53;5.30;;;1.40;;
55728;SDS011;41633;39.720;2.910;2023-04-09T02:56:19;7.32;;;1.77;;
55728;SDS011;41633;39.720;2.910;2023-04-09T02:58:45;4.35;;;1.30;;
55728;SDS011;41633;39.720;2.910;2023-04-09T03:01:13;5.97;;;1.23;;
55728;SDS011;41633;39.720;2.910;2023-04-09T03:03:39;4.22;;;1.20;;
55728;SDS011;41633;39.720;2.910;2023-04-09T03:06:06;5.85;;;1.38;;
55728;SDS011;41633;39.720;2.910;2023-04-09T03:08:33;5.50;;;1.13;;
55728;SDS011;41633;39.720;2.910;2023-04-09T03:10:59;5.82;;;1.30;;
55728;SDS011;41633;39.720;2.910;2023-04-09T03:13:26;5.20;;;1.17;;
55728;SDS011;41633;39.720;2.910;2023-04-09T03:15:52;5.93;;;1.20;;
55728;SDS011;41633;39.720;2.910;2023-04-09T03:18:19;5.00;;;1.25;;
55728;SDS011;41633;39.720;2.910;2023-04-09T03:23:11;10.45;;;2.47;;
55728;SDS011;41633;39.720;2.910;2023-04-09T03:28:03;8.27;;;2.03;;
55728;SDS011;41633;39.720;2.910;2023-04-09T03:30:29;6.18;;;1.77;;
55728;SDS011;41633;39.720;2.910;2023-04-09T03:32:55;6.60;;;1.77;;
55728;SDS011;41633;39.720;2.910;2023-04-09T03:35:23;7.07;;;1.98;;
55728;SDS011;41633;39.720;2.910;2023-04-09T03:40:15;4.97;;;1.40;;
55728;SDS011;41633;39.720;2.910;2023-04-09T03:42:42;5.47;;;1.48;;
55728;SDS011;41633;39.720;2.910;2023-04-09T03:45:11;7.60;;;1.70;;
55728;SDS011;41633;39.720;2.910;2023-04-09T03:47:37;6.80;;;1.50;;
55728;SDS011;41633;39.720;2.910;2023-04-09T03:50:03;5.22;;;1.10;;
55728;SDS011;41633;39.720;2.910;2023-04-09T03:54:55;6.72;;;1.40;;
55728;SDS011;41633;39.720;2.910;2023-04-09T03:57:21;9.07;;;2.50;;
55728;SDS011;41633;39.720;2.910;2023-04-09T03:59:47;7.90;;;2.47;;
55728;SDS011;41633;39.720;2.910;2023-04-09T04:02:13;10.65;;;2.63;;
55728;SDS011;41633;39.720;2.910;2023-04-09T04:04:40;10.15;;;3.35;;
55728;SDS011;41633;39.720;2.910;2023-04-09T04:07:06;8.48;;;3.13;;
55728;SDS011;41633;39.720;2.910;2023-04-09T04:11:59;7.53;;;2.17;;
55728;SDS011;41633;39.720;2.910;2023-04-09T04:14:26;6.70;;;2.00;;
55728;SDS011;41633;39.720;2.910;2023-04-09T04:16:52;8.82;;;2.75;;
55728;SDS011;41633;39.720;2.910;2023-04-09T04:19:18;7.80;;;2.65;;
55728;SDS011;41633;39.720;2.910;2023-04-09T04:21:44;7.78;;;2.55;;
55728;SDS011;41633;39.720;2.910;2023-04-09T04:24:10;6.65;;;2.08;;
55728;SDS011;41633;39.720;2.910;2023-04-09T04:26:38;9.05;;;2.25;;
55728;SDS011;41633;39.720;2.910;2023-04-09T04:29:05;6.22;;;1.88;;
55728;SDS011;41633;39.720;2.910;2023-04-09T04:31:31;7.80;;;1.85;;
55728;SDS011;41633;39.720;2.910;2023-04-09T04:33:57;6.20;;;1.88;;
55728;SDS011;41633;39.720;2.910;2023-04-09T04:36:23;7.15;;;1.83;;
55728;SDS011;41633;39.720;2.910;2023-04-09T04:38:50;6.05;;;1.70;;
55728;SDS011;41633;39.720;2.910;2023-04-09T04:41:16;8.23;;;1.77;;
55728;SDS011;41633;39.720;2.910;2023-04-09T04:43:42;8.43;;;1.83;;
55728;SDS011;41633;39.720;2.910;2023-04-09T04:46:08;6.25;;;1.65;;
55728;SDS011;41633;39.720;2.910;2023-04-09T04:48:34;5.43;;;1.40;;
55728;SDS011;41633;39.720;2.910;2023-04-09T04:51:01;6.90;;;1.63;;
55728;SDS011;41633;39.720;2.910;2023-04-09T04:53:27;5.93;;;1.52;;
55728;SDS011;41633;39.720;2.910;2023-04-09T04:55:53;6.03;;;1.50;;
55728;SDS011;41633;39.720;2.910;2023-04-09T04:58:19;6.18;;;1.50;;
55728;SDS011;41633;39.720;2.910;2023-04-09T05:00:45;6.55;;;1.60;;
55728;SDS011;41633;39.720;2.910;2023-04-09T05:03:12;6.10;;;1.50;;
55728;SDS011;41633;39.720;2.910;2023-04-09T05:05:38;7.80;;;1.38;;
55728;SDS011;41633;39.720;2.910;2023-04-09T05:08:04;6.00;;;1.60;;
55728;SDS011;41633;39.720;2.910;2023-04-09T05:10:31;5.65;;;1.55;;
55728;SDS011;41633;39.720;2.910;2023-04-09T05:12:57;4.43;;;1.40;;
55728;SDS011;41633;39.720;2.910;2023-04-09T05:17:58;4.90;;;1.08;;
55728;SDS011;41633;39.720;2.910;2023-04-09T05:20:26;14.20;;;4.25;;
55728;SDS011;41633;39.720;2.910;2023-04-09T05:22:52;11.13;;;3.70;;
55728;SDS011;41633;39.720;2.910;2023-04-09T05:25:18;8.48;;;2.67;;
55728;SDS011;41633;39.720;2.910;2023-04-09T05:27:44;8.63;;;2.17;;
55728;SDS011;41633;39.720;2.910;2023-04-09T05:30:10;7.75;;;1.92;;
55728;SDS011;41633;39.720;2.910;2023-04-09T05:32:37;15.05;;;3.63;;
55728;SDS011;41633;39.720;2.910;2023-04-09T05:35:03;10.23;;;2.58;;
55728;SDS011;41633;39.720;2.910;2023-04-09T05:37:30;8.98;;;2.50;;
55728;SDS011;41633;39.720;2.910;2023-04-09T05:39:56;7.00;;;2.08;;
55728;SDS011;41633;39.720;2.910;2023-04-09T05:42:22;8.43;;;2.03;;
55728;SDS011;41633;39.720;2.910;2023-04-09T05:44:48;11.95;;;3.15;;
55728;SDS011;41633;39.720;2.910;2023-04-09T05:47:14;10.32;;;3.45;;
55728;SDS011;41633;39.720;2.910;2023-04-09T05:49:41;9.20;;;2.95;;
55728;SDS011;41633;39.720;2.910;2023-04-09T05:52:07;9.15;;;3.10;;
55728;SDS011;41633;39.720;2.910;2023-04-09T05:54:33;11.40;;;3.40;;
55728;SDS011;41633;39.720;2.910;2023-04-09T05:57:00;11.98;;;3.28;;
55728;SDS011;41633;39.720;2.910;2023-04-09T05:59:26;8.68;;;2.75;;
55728;SDS011;41633;39.720;2.910;2023-04-09T06:04:18;10.18;;;3.30;;
55728;SDS011;41633;39.720;2.910;2023-04-09T06:09:11;8.77;;;2.60;;
55728;SDS011;41633;39.720;2.910;2023-04-09T06:14:03;7.82;;;2.08;;
55728;SDS011;41633;39.720;2.910;2023-04-09T06:16:29;7.75;;;2.00;;
55728;SDS011;41633;39.720;2.910;2023-04-09T06:18:55;6.55;;;1.80;;
55728;SDS011;41633;39.720;2.910;2023-04-09T06:21:21;9.10;;;2.60;;
55728;SDS011;41633;39.720;2.910;2023-04-09T06:23:47;6.85;;;2.03;;
55728;SDS011;41633;39.720;2.910;2023-04-09T06:26:14;8.52;;;2.03;;
55728;SDS011;41633;39.720;2.910;2023-04-09T06:31:07;7.65;;;2.28;;
55728;SDS011;41633;39.720;2.910;2023-04-09T06:33:33;7.88;;;2.90;;
55728;SDS011;41633;39.720;2.910;2023-04-09T06:35:59;9.52;;;3.80;;
55728;SDS011;41633;39.720;2.910;2023-04-09T06:38:25;9.43;;;3.55;;
55728;SDS011;41633;39.720;2.910;2023-04-09T06:40:51;9.00;;;3.38;;
55728;SDS011;41633;39.720;2.910;2023-04-09T06:43:18;7.65;;;2.65;;
55728;SDS011;41633;39.720;2.910;2023-04-09T06:48:10;8.25;;;2.78;;
55728;SDS011;41633;39.720;2.910;2023-04-09T06:53:05;7.20;;;2.05;;
55728;SDS011;41633;39.720;2.910;2023-04-09T06:55:31;7.03;;;1.73;;
55728;SDS011;41633;39.720;2.910;2023-04-09T06:57:57;8.68;;;1.75;;
55728;SDS011;41633;39.720;2.910;2023-04-09T07:02:50;5.93;;;1.50;;
55728;SDS011;41633;39.720;2.910;2023-04-09T07:05:17;6.75;;;1.65;;
55728;SDS011;41633;39.720;2.910;2023-04-09T07:07:43;6.70;;;1.40;;
55728;SDS011;41633;39.720;2.910;2023-04-09T07:12:35;7.20;;;1.50;;
55728;SDS011;41633;39.720;2.910;2023-04-09T07:17:28;5.38;;;1.27;;
55728;SDS011;41633;39.720;2.910;2023-04-09T07:19:54;6.32;;;1.60;;
55728;SDS011;41633;39.720;2.910;2023-04-09T07:24:50;8.38;;;1.80;;
55728;SDS011;41633;39.720;2.910;2023-04-09T07:27:23;6.85;;;1.38;;
55728;SDS011;41633;39.720;2.910;2023-04-09T07:29:50;8.50;;;1.70;;
55728;SDS011;41633;39.720;2.910;2023-04-09T07:34:42;5.80;;;1.20;;
55728;SDS011;41633;39.720;2.910;2023-04-09T07:37:08;6.85;;;1.58;;
55728;SDS011;41633;39.720;2.910;2023-04-09T07:39:35;7.45;;;1.67;;
55728;SDS011;41633;39.720;2.910;2023-04-09T07:44:28;10.38;;;1.80;;
55728;SDS011;41633;39.720;2.910;2023-04-09T07:49:20;9.65;;;2.15;;
55728;SDS011;41633;39.720;2.910;2023-04-09T07:51:47;8.18;;;1.70;;
55728;SDS011;41633;39.720;2.910;2023-04-09T07:54:13;8.63;;;1.75;;
55728;SDS011;41633;39.720;2.910;2023-04-09T07:59:05;8.07;;;1.90;;
55728;SDS011;41633;39.720;2.910;2023-04-09T08:03:57;6.95;;;1.40;;
55728;SDS011;41633;39.720;2.910;2023-04-09T08:08:50;6.97;;;1.48;;
55728;SDS011;41633;39.720;2.910;2023-04-09T08:11:17;7.93;;;1.90;;
55728;SDS011;41633;39.720;2.910;2023-04-09T08:13:49;9.93;;;1.98;;
55728;SDS011;41633;39.720;2.910;2023-04-09T08:16:16;10.75;;;1.98;;
55728;SDS011;41633;39.720;2.910;2023-04-09T08:18:42;6.15;;;1.50;;
55728;SDS011;41633;39.720;2.910;2023-04-09T08:23:34;7.90;;;1.77;;
55728;SDS011;41633;39.720;2.910;2023-04-09T08:26:01;9.02;;;1.98;;
55728;SDS011;41633;39.720;2.910;2023-04-09T08:28:28;12.85;;;2.20;;
55728;SDS011;41633;39.720;2.910;2023-04-09T08:30:54;7.80;;;1.70;;
55728;SDS011;41633;39.720;2.910;2023-04-09T08:33:20;10.07;;;2.92;;
55728;SDS011;41633;39.720;2.910;2023-04-09T08:35:46;8.98;;;2.35;;
55728;SDS011;41633;39.720;2.910;2023-04-09T08:40:39;8.52;;;1.90;;
55728;SDS011;41633;39.720;2.910;2023-04-09T08:43:06;10.07;;;2.67;;
55728;SDS011;41633;39.720;2.910;2023-04-09T08:45:33;9.20;;;2.88;;
55728;SDS011;41633;39.720;2.910;2023-04-09T08:47:59;6.40;;;1.88;;
55728;SDS011;41633;39.720;2.910;2023-04-09T08:50:30;9.15;;;2.83;;
55728;SDS011;41633;39.720;2.910;2023-04-09T08:53:03;8.27;;;2.40;;
55728;SDS011;41633;39.720;2.910;2023-04-09T08:55:30;8.48;;;2.22;;
55728;SDS011;41633;39.720;2.910;2023-04-09T08:57:58;8.48;;;2.53;;
55728;SDS011;41633;39.720;2.910;2023-04-09T09:00:25;8.68;;;2.80;;
55728;SDS011;41633;39.720;2.910;2023-04-09T09:03:07;8.82;;;2.80;;
55728;SDS011;41633;39.720;2.910;2023-04-09T09:05:37;9.15;;;2.97;;
55728;SDS011;41633;39.720;2.910;2023-04-09T09:08:05;8.55;;;2.63;;
55728;SDS011;41633;39.720;2.910;2023-04-09T09:10:41;8.82;;;2.40;;
55728;SDS011;41633;39.720;2.910;2023-04-09T09:15:33;6.93;;;1.88;;
55728;SDS011;41633;39.720;2.910;2023-04-09T09:18:00;10.18;;;2.33;;
55728;SDS011;41633;39.720;2.910;2023-04-09T09:20:26;11.50;;;2.00;;
55728;SDS011;41633;39.720;2.910;2023-04-09T09:22:53;8.00;;;2.00;;
55728;SDS011;41633;39.720;2.910;2023-04-09T09:25:20;6.28;;;1.80;;
55728;SDS011;41633;39.720;2.910;2023-04-09T09:27:50;7.32;;;1.63;;
55728;SDS011;41633;39.720;2.910;2023-04-09T09:30:23;6.35;;;1.58;;
55728;SDS011;41633;39.720;2.910;2023-04-09T09:33:23;5.88;;;1.80;;
55728;SDS011;41633;39.720;2.910;2023-04-09T09:35:46;6.82;;;1.60;;
55728;SDS011;41633;39.720;2.910;2023-04-09T09:38:13;8.80;;;2.20;;
55728;SDS011;41633;39.720;2.910;2023-04-09T09:40:40;9.07;;;1.50;;
55728;SDS011;41633;39.720;2.910;2023-04-09T09:43:06;8.27;;;1.90;;
55728;SDS011;41633;39.720;2.910;2023-04-09T09:45:32;6.38;;;1.70;;
55728;SDS011;41633;39.720;2.910;2023-04-09T09:47:58;8.52;;;1.90;;
55728;SDS011;41633;39.720;2.910;2023-04-09T09:50:25;7.75;;;2.05;;
55728;SDS011;41633;39.720;2.910;2023-04-09T09:52:57;9.20;;;2.05;;
55728;SDS011;41633;39.720;2.910;2023-04-09T09:55:23;6.55;;;1.98;;
55728;SDS011;41633;39.720;2.910;2023-04-09T09:57:51;8.68;;;2.20;;
55728;SDS011;41633;39.720;2.910;2023-04-09T10:00:17;8.05;;;2.08;;
55728;SDS011;41633;39.720;2.910;2023-04-09T10:02:56;7.30;;;2.00;;
55728;SDS011;41633;39.720;2.910;2023-04-09T10:05:23;7.53;;;1.83;;
55728;SDS011;41633;39.720;2.910;2023-04-09T10:07:53;8.40;;;2.08;;
55728;SDS011;41633;39.720;2.910;2023-04-09T10:10:19;7.65;;;1.73;;
55728;SDS011;41633;39.720;2.910;2023-04-09T10:12:46;8.18;;;1.80;;
55728;SDS011;41633;39.720;2.910;2023-04-09T10:15:13;6.68;;;1.70;;
55728;SDS011;41633;39.720;2.910;2023-04-09T10:17:39;5.75;;;1.45;;
55728;SDS011;41633;39.720;2.910;2023-04-09T10:22:38;6.25;;;1.60;;
55728;SDS011;41633;39.720;2.910;2023-04-09T10:25:05;6.53;;;1.95;;
55728;SDS011;41633;39.720;2.910;2023-04-09T10:27:32;5.88;;;1.67;;
55728;SDS011;41633;39.720;2.910;2023-04-09T10:29:58;6.35;;;1.70;;
55728;SDS011;41633;39.720;2.910;2023-04-09T10:32:24;6.85;;;1.90;;
55728;SDS011;41633;39.720;2.910;2023-04-09T10:34:55;5.75;;;1.48;;
55728;SDS011;41633;39.720;2.910;2023-04-09T10:37:22;5.35;;;1.40;;
55728;SDS011;41633;39.720;2.910;2023-04-09T10:39:49;6.03;;;1.17;;
55728;SDS011;41633;39.720;2.910;2023-04-09T10:42:20;3.97;;;1.25;;
55728;SDS011;41633;39.720;2.910;2023-04-09T10:47:30;6.07;;;1.40;;
55728;SDS011;41633;39.720;2.910;2023-04-09T10:49:58;4.80;;;1.20;;
55728;SDS011;41633;39.720;2.910;2023-04-09T10:52:39;7.70;;;1.40;;
55728;SDS011;41633;39.720;2.910;2023-04-09T10:55:09;5.55;;;1.35;;
55728;SDS011;41633;39.720;2.910;2023-04-09T10:57:35;4.35;;;1.20;;
55728;SDS011;41633;39.720;2.910;2023-04-09T11:00:01;6.85;;;1.48;;
55728;SDS011;41633;39.720;2.910;2023-04-09T11:07:26;6.30;;;1.60;;
55728;SDS011;41633;39.720;2.910;2023-04-09T11:09:52;7.10;;;1.85;;
55728;SDS011;41633;39.720;2.910;2023-04-09T11:12:18;4.93;;;1.40;;
55728;SDS011;41633;39.720;2.910;2023-04-09T11:14:45;6.47;;;1.60;;
55728;SDS011;41633;39.720;2.910;2023-04-09T11:17:11;7.45;;;1.85;;
55728;SDS011;41633;39.720;2.910;2023-04-09T11:19:37;9.98;;;2.20;;
55728;SDS011;41633;39.720;2.910;2023-04-09T11:22:04;7.93;;;2.13;;
55728;SDS011;41633;39.720;2.910;2023-04-09T11:24:43;10.00;;;2.22;;
55728;SDS011;41633;39.720;2.910;2023-04-09T11:27:11;8.77;;;2.40;;
55728;SDS011;41633;39.720;2.910;2023-04-09T11:29:37;8.07;;;2.75;;
55728;SDS011;41633;39.720;2.910;2023-04-09T11:32:04;8.68;;;2.90;;
55728;SDS011;41633;39.720;2.910;2023-04-09T11:34:31;7.72;;;2.63;;
55728;SDS011;41633;39.720;2.910;2023-04-09T11:36:57;7.88;;;2.20;;
55728;SDS011;41633;39.720;2.910;2023-04-09T11:39:27;9.93;;;2.85;;
55728;SDS011;41633;39.720;2.910;2023-04-09T11:41:53;7.60;;;1.95;;
55728;SDS011;41633;39.720;2.910;2023-04-09T11:44:20;9.68;;;2.38;;
55728;SDS011;41633;39.720;2.910;2023-04-09T11:46:47;9.63;;;2.47;;
55728;SDS011;41633;39.720;2.910;2023-04-09T11:49:14;9.45;;;3.05;;
55728;SDS011;41633;39.720;2.910;2023-04-09T11:51:41;8.23;;;2.78;;
55728;SDS011;41633;39.720;2.910;2023-04-09T11:54:07;6.95;;;2.25;;
55728;SDS011;41633;39.720;2.910;2023-04-09T11:56:36;6.35;;;1.90;;
55728;SDS011;41633;39.720;2.910;2023-04-09T11:59:03;6.82;;;1.80;;
55728;SDS011;41633;39.720;2.910;2023-04-09T12:01:36;6.60;;;1.52;;
55728;SDS011;41633;39.720;2.910;2023-04-09T12:04:03;5.63;;;1.30;;
55728;SDS011;41633;39.720;2.910;2023-04-09T12:06:30;6.57;;;1.48;;
55728;SDS011;41633;39.720;2.910;2023-04-09T12:08:57;9.20;;;1.63;;
55728;SDS011;41633;39.720;2.910;2023-04-09T12:11:27;6.93;;;1.40;;
55728;SDS011;41633;39.720;2.910;2023-04-09T12:14:03;6.70;;;1.33;;
55728;SDS011;41633;39.720;2.910;2023-04-09T12:16:30;6.55;;;1.38;;
55728;SDS011;41633;39.720;2.910;2023-04-09T12:19:05;5.88;;;1.38;;
55728;SDS011;41633;39.720;2.910;2023-04-09T12:23:58;5.93;;;1.60;;
55728;SDS011;41633;39.720;2.910;2023-04-09T12:26:24;5.95;;;1.50;;
55728;SDS011;41633;39.720;2.910;2023-04-09T12:28:50;5.45;;;1.73;;
55728;SDS011;41633;39.720;2.910;2023-04-09T12:31:16;7.93;;;1.25;;
55728;SDS011;41633;39.720;2.910;2023-04-09T12:33:45;8.10;;;1.40;;
55728;SDS011;41633;39.720;2.910;2023-04-09T12:36:13;5.63;;;1.40;;
55728;SDS011;41633;39.720;2.910;2023-04-09T12:38:42;6.18;;;1.33;;
55728;SDS011;41633;39.720;2.910;2023-04-09T12:41:09;6.18;;;1.17;;
55728;SDS011;41633;39.720;2.910;2023-04-09T12:43:37;6.82;;;1.42;;
55728;SDS011;41633;39.720;2.910;2023-04-09T12:46:07;6.00;;;1.20;;
55728;SDS011;41633;39.720;2.910;2023-04-09T12:48:36;7.38;;;1.35;;
55728;SDS011;41633;39.720;2.910;2023-04-09T12:51:04;7.32;;;1.38;;
55728;SDS011;41633;39.720;2.910;2023-04-09T12:53:30;5.10;;;1.20;;
55728;SDS011;41633;39.720;2.910;2023-04-09T12:55:57;5.97;;;1.48;;
55728;SDS011;41633;39.720;2.910;2023-04-09T12:58:25;7.43;;;1.30;;
55728;SDS011;41633;39.720;2.910;2023-04-09T13:00:54;7.07;;;1.40;;
55728;SDS011;41633;39.720;2.910;2023-04-09T13:03:23;7.63;;;1.35;;
55728;SDS011;41633;39.720;2.910;2023-04-09T13:05:49;5.50;;;1.20;;
55728;SDS011;41633;39.720;2.910;2023-04-09T13:08:17;7.30;;;1.75;;
55728;SDS011;41633;39.720;2.910;2023-04-09T13:10:46;8.68;;;2.20;;
55728;SDS011;41633;39.720;2.910;2023-04-09T13:13:13;5.57;;;1.20;;
55728;SDS011;41633;39.720;2.910;2023-04-09T13:15:42;3.97;;;1.05;;
55728;SDS011;41633;39.720;2.910;2023-04-09T13:18:11;5.60;;;1.10;;
55728;SDS011;41633;39.720;2.910;2023-04-09T13:20:38;5.20;;;1.00;;
55728;SDS011;41633;39.720;2.910;2023-04-09T13:23:06;5.28;;;1.05;;
55728;SDS011;41633;39.720;2.910;2023-04-09T13:25:33;5.47;;;1.33;;
55728;SDS011;41633;39.720;2.910;2023-04-09T13:28:00;5.90;;;1.30;;
55728;SDS011;41633;39.720;2.910;2023-04-09T13:30:26;6.15;;;1.10;;
55728;SDS011;41633;39.720;2.910;2023-04-09T13:32:55;5.05;;;1.00;;
55728;SDS011;41633;39.720;2.910;2023-04-09T13:35:23;3.58;;;0.90;;
55728;SDS011;41633;39.720;2.910;2023-04-09T13:37:50;5.43;;;1.23;;
55728;SDS011;41633;39.720;2.910;2023-04-09T13:40:19;5.65;;;1.02;;
55728;SDS011;41633;39.720;2.910;2023-04-09T13:42:46;3.42;;;1.00;;
55728;SDS011;41633;39.720;2.910;2023-04-09T13:45:13;6.15;;;0.93;;
55728;SDS011;41633;39.720;2.910;2023-04-09T13:47:40;3.78;;;1.00;;
55728;SDS011;41633;39.720;2.910;2023-04-09T13:50:09;5.95;;;1.30;;
55728;SDS011;41633;39.720;2.910;2023-04-09T13:52:39;4.93;;;1.00;;
55728;SDS011;41633;39.720;2.910;2023-04-09T13:55:07;5.30;;;1.20;;
55728;SDS011;41633;39.720;2.910;2023-04-09T13:57:35;4.43;;;1.00;;
55728;SDS011;41633;39.720;2.910;2023-04-09T14:00:02;4.88;;;1.17;;
55728;SDS011;41633;39.720;2.910;2023-04-09T14:02:30;5.22;;;1.00;;
55728;SDS011;41633;39.720;2.910;2023-04-09T14:04:58;4.45;;;0.82;;
55728;SDS011;41633;39.720;2.910;2023-04-09T14:07:27;5.10;;;1.00;;
55728;SDS011;41633;39.720;2.910;2023-04-09T14:09:53;4.75;;;1.10;;
55728;SDS011;41633;39.720;2.910;2023-04-09T14:12:20;3.67;;;0.95;;
55728;SDS011;41633;39.720;2.910;2023-04-09T14:14:49;5.40;;;1.30;;
55728;SDS011;41633;39.720;2.910;2023-04-09T14:17:18;4.03;;;1.08;;
55728;SDS011;41633;39.720;2.910;2023-04-09T14:19:45;4.25;;;0.90;;
55728;SDS011;41633;39.720;2.910;2023-04-09T14:22:12;5.40;;;1.30;;
55728;SDS011;41633;39.720;2.910;2023-04-09T14:24:41;5.45;;;0.93;;
55728;SDS011;41633;39.720;2.910;2023-04-09T14:27:07;4.97;;;0.95;;
55728;SDS011;41633;39.720;2.910;2023-04-09T14:29:35;5.15;;;1.17;;
55728;SDS011;41633;39.720;2.910;2023-04-09T14:32:02;4.60;;;1.10;;
55728;SDS011;41633;39.720;2.910;2023-04-09T14:34:29;4.55;;;1.17;;
55728;SDS011;41633;39.720;2.910;2023-04-09T14:36:57;5.43;;;1.23;;
55728;SDS011;41633;39.720;2.910;2023-04-09T14:39:24;6.53;;;1.30;;
55728;SDS011;41633;39.720;2.910;2023-04-09T14:41:51;4.30;;;1.02;;
55728;SDS011;41633;39.720;2.910;2023-04-09T14:44:20;5.28;;;0.93;;
55728;SDS011;41633;39.720;2.910;2023-04-09T14:46:50;4.28;;;1.00;;
55728;SDS011;41633;39.720;2.910;2023-04-09T14:49:20;5.70;;;1.30;;
55728;SDS011;41633;39.720;2.910;2023-04-09T14:51:48;3.10;;;0.90;;
55728;SDS011;41633;39.720;2.910;2023-04-09T14:54:16;3.55;;;0.90;;
55728;SDS011;41633;39.720;2.910;2023-04-09T14:56:42;3.08;;;0.70;;
55728;SDS011;41633;39.720;2.910;2023-04-09T14:59:11;5.82;;;1.10;;
55728;SDS011;41633;39.720;2.910;2023-04-09T15:01:38;3.97;;;0.90;;
55728;SDS011;41633;39.720;2.910;2023-04-09T15:04:06;3.95;;;0.98;;
55728;SDS011;41633;39.720;2.910;2023-04-09T15:06:33;6.15;;;1.13;;
55728;SDS011;41633;39.720;2.910;2023-04-09T15:09:01;5.15;;;1.00;;
55728;SDS011;41633;39.720;2.910;2023-04-09T15:11:28;5.47;;;0.80;;
55728;SDS011;41633;39.720;2.910;2023-04-09T15:13:56;3.85;;;1.02;;
55728;SDS011;41633;39.720;2.910;2023-04-09T15:16:26;2.90;;;0.80;;
55728;SDS011;41633;39.720;2.910;2023-04-09T15:18:56;3.75;;;0.98;;
55728;SDS011;41633;39.720;2.910;2023-04-09T15:21:25;4.20;;;0.90;;
55728;SDS011;41633;39.720;2.910;2023-04-09T15:23:53;4.35;;;0.88;;
55728;SDS011;41633;39.720;2.910;2023-04-09T15:26:24;5.38;;;1.05;;
55728;SDS011;41633;39.720;2.910;2023-04-09T15:28:55;3.95;;;0.80;;
55728;SDS011;41633;39.720;2.910;2023-04-09T15:31:28;4.70;;;0.90;;
55728;SDS011;41633;39.720;2.910;2023-04-09T15:33:57;4.40;;;0.90;;
55728;SDS011;41633;39.720;2.910;2023-04-09T15:36:24;4.18;;;1.00;;
55728;SDS011;41633;39.720;2.910;2023-04-09T15:38:54;6.82;;;1.20;;
55728;SDS011;41633;39.720;2.910;2023-04-09T15:41:22;4.60;;;1.00;;
55728;SDS011;41633;39.720;2.910;2023-04-09T15:43:51;3.63;;;1.00;;
55728;SDS011;41633;39.720;2.910;2023-04-09T15:46:20;3.92;;;1.13;;
55728;SDS011;41633;39.720;2.910;2023-04-09T15:48:48;5.63;;;1.10;;
55728;SDS011;41633;39.720;2.910;2023-04-09T15:51:15;5.15;;;1.40;;
55728;SDS011;41633;39.720;2.910;2023-04-09T15:53:42;3.72;;;1.08;;
55728;SDS011;41633;39.720;2.910;2023-04-09T15:56:11;8.27;;;1.35;;
55728;SDS011;41633;39.720;2.910;2023-04-09T15:58:41;6.93;;;1.45;;
55728;SDS011;41633;39.720;2.910;2023-04-09T16:01:09;5.60;;;1.13;;
55728;SDS011;41633;39.720;2.910;2023-04-09T16:03:36;6.28;;;1.40;;
55728;SDS011;41633;39.720;2.910;2023-04-09T16:06:09;9.60;;;1.80;;
55728;SDS011;41633;39.720;2.910;2023-04-09T16:08:47;9.23;;;2.05;;
55728;SDS011;41633;39.720;2.910;2023-04-09T16:11:14;4.93;;;1.20;;
55728;SDS011;41633;39.720;2.910;2023-04-09T16:13:43;3.90;;;1.10;;
55728;SDS011;41633;39.720;2.910;2023-04-09T16:16:12;6.63;;;1.02;;
55728;SDS011;41633;39.720;2.910;2023-04-09T16:18:40;4.65;;;1.10;;
55728;SDS011;41633;39.720;2.910;2023-04-09T16:21:08;5.10;;;0.95;;
55728;SDS011;41633;39.720;2.910;2023-04-09T16:23:37;5.38;;;1.10;;
55728;SDS011;41633;39.720;2.910;2023-04-09T16:26:06;6.55;;;1.40;;
55728;SDS011;41633;39.720;2.910;2023-04-09T16:28:33;3.95;;;0.90;;